createdAt,value
2023-04-18T00:00:22.911Z,34.39
2023-04-18T00:05:30.767Z,34.45
2023-04-18T00:10:38.415Z,34.44
2023-04-18T00:15:46.217Z,34.45
2023-04-18T00:21:00.473Z,34.52
2023-04-18T00:26:11.489Z,34.55
2023-04-18T00:31:23.942Z,34.58
2023-04-18T00:36:31.378Z,34.58
2023-04-18T00:42:06.427Z,34.59
2023-04-18T00:47:05.089Z,34.60
2023-04-18T00:52:22.225Z,34.60
2023-04-18T00:57:28.212Z,34.60
2023-04-18T01:02:40.645Z,34.62
2023-04-18T01:07:55.962Z,34.65
2023-04-18T01:13:11.108Z,34.66
2023-04-18T01:18:18.611Z,34.63
2023-04-18T01:23:26.031Z,34.65
2023-04-18T01:28:33.538Z,34.62
2023-04-18T01:33:40.931Z,34.65
2023-04-18T01:38:49.833Z,34.67
2023-04-18T01:43:57.147Z,34.69
2023-04-18T01:49:04.606Z,34.71
2023-04-18T01:54:12.256Z,34.66
2023-04-18T01:59:19.399Z,34.71
2023-04-18T02:04:26.832Z,34.72
2023-04-18T02:09:34.101Z,34.70
2023-04-18T02:14:44.156Z,34.75
2023-04-18T02:19:51.702Z,34.78
2023-04-18T02:24:59.077Z,34.78
2023-04-18T02:30:06.510Z,34.81
2023-04-18T02:35:14.098Z,34.81
2023-04-18T02:40:21.390Z,34.85
2023-04-18T02:45:28.723Z,34.83
2023-04-18T02:50:36.137Z,34.87
2023-04-18T02:55:43.235Z,34.92
2023-04-18T03:00:50.640Z,34.97
2023-04-18T03:05:57.917Z,34.97
2023-04-18T03:11:05.184Z,34.99
2023-04-18T03:16:12.419Z,34.96
2023-04-18T03:21:19.695Z,34.97
2023-04-18T03:26:26.937Z,34.98
2023-04-18T03:31:34.179Z,35.13
2023-04-18T03:36:41.346Z,35.15
2023-04-18T03:41:48.598Z,35.17
2023-04-18T03:46:55.756Z,35.21
2023-04-18T03:52:02.989Z,35.26
2023-04-18T03:57:10.163Z,35.29
2023-04-18T04:02:17.511Z,35.27
2023-04-18T04:07:24.835Z,35.36
2023-04-18T04:12:32.019Z,35.36
2023-04-18T04:17:39.264Z,35.36
2023-04-18T04:22:46.514Z,35.40
2023-04-18T04:27:53.680Z,35.42
2023-04-18T04:33:00.844Z,35.38
2023-04-18T04:38:08.170Z,35.29
2023-04-18T04:43:15.281Z,35.36
2023-04-18T04:48:22.520Z,35.46
2023-04-18T04:53:29.815Z,35.39
2023-04-18T04:58:36.969Z,35.29
2023-04-18T05:03:44.383Z,35.23
2023-04-18T05:08:51.359Z,35.30
2023-04-18T05:13:58.508Z,35.35
2023-04-18T05:19:05.700Z,35.34
2023-04-18T05:24:13.512Z,35.35
2023-04-18T05:29:20.461Z,35.37
2023-04-18T05:34:27.674Z,35.20
2023-04-18T05:39:34.991Z,35.22
2023-04-18T05:44:42.121Z,35.24
2023-04-18T05:49:49.308Z,35.37
2023-04-18T05:54:56.509Z,35.50
2023-04-18T06:00:03.684Z,35.39
2023-04-18T06:05:11.125Z,35.50
2023-04-18T06:10:18.078Z,35.35
2023-04-18T06:15:25.213Z,35.48
2023-04-18T06:20:32.429Z,35.53
2023-04-18T06:25:39.678Z,35.54
2023-04-18T06:30:46.797Z,35.61
2023-04-18T06:35:53.984Z,35.74
2023-04-18T06:41:01.353Z,35.72
2023-04-18T06:46:08.385Z,35.55
2023-04-18T06:51:15.533Z,35.45
2023-04-18T06:56:22.754Z,35.67
2023-04-18T07:01:29.947Z,35.68
2023-04-18T07:06:37.085Z,35.87
2023-04-18T07:11:44.305Z,35.75
2023-04-18T07:16:51.482Z,35.56
2023-04-18T07:21:58.631Z,35.92
2023-04-18T07:27:05.908Z,35.65
2023-04-18T07:32:13.037Z,35.93
2023-04-18T07:37:20.330Z,37.42
2023-04-18T07:42:27.722Z,36.81
2023-04-18T07:47:34.710Z,36.81
2023-04-18T07:52:41.854Z,36.78
2023-04-18T07:57:49.090Z,36.53
2023-04-18T08:02:56.571Z,36.55
2023-04-18T08:08:03.606Z,36.73
2023-04-18T08:13:10.828Z,36.67
2023-04-18T08:18:17.974Z,36.58
2023-04-18T08:23:25.226Z,36.90
2023-04-18T08:28:32.483Z,37.01
2023-04-18T08:33:39.629Z,36.79
2023-04-18T08:38:46.931Z,36.90
2023-04-18T08:43:56.941Z,36.68
2023-04-18T08:49:01.692Z,36.74
2023-04-18T08:54:08.887Z,36.78
2023-04-18T08:59:16.388Z,36.80
2023-04-18T09:04:23.276Z,36.90
2023-04-18T09:09:30.432Z,36.96
2023-04-18T09:14:37.655Z,36.94
2023-04-18T09:19:44.878Z,37.03
2023-04-18T09:24:52.191Z,36.89
2023-04-18T09:29:59.688Z,37.06
2023-04-18T09:35:06.561Z,37.22
2023-04-18T09:40:13.768Z,37.35
2023-04-18T09:45:21.040Z,37.42
2023-04-18T09:50:28.234Z,37.48
2023-04-18T09:55:35.428Z,37.61
2023-04-18T10:00:44.368Z,37.52
2023-04-18T10:05:49.858Z,37.87
2023-04-18T10:10:57.071Z,37.95
2023-04-18T10:16:04.319Z,38.10
2023-04-18T10:21:11.459Z,38.04
2023-04-18T10:26:18.723Z,38.30
2023-04-18T10:31:26.081Z,38.28
2023-04-18T10:36:33.116Z,38.22
2023-04-18T10:41:40.284Z,38.22
2023-04-18T10:46:47.559Z,38.13
2023-04-18T10:51:54.653Z,38.15
2023-04-18T10:57:01.806Z,38.17
2023-04-18T11:02:09.076Z,38.30
2023-04-18T11:07:16.182Z,38.14
2023-04-18T11:12:23.376Z,38.28
2023-04-18T11:17:30.626Z,38.44
2023-04-18T11:22:37.857Z,38.39
2023-04-18T11:27:45.075Z,38.62
2023-04-18T11:32:52.363Z,38.90
2023-04-18T11:37:59.421Z,38.86
2023-04-18T11:43:06.710Z,38.64
2023-04-18T11:48:14.008Z,39.06
2023-04-18T11:53:21.160Z,39.12
2023-04-18T11:58:28.355Z,39.05
2023-04-18T12:03:35.844Z,38.96
2023-04-18T12:08:42.835Z,39.10
2023-04-18T12:13:50.314Z,39.08
2023-04-18T12:18:57.726Z,39.12
2023-04-18T12:24:04.798Z,39.31
2023-04-18T12:29:12.217Z,39.20
2023-04-18T12:34:19.159Z,39.28
2023-04-18T12:39:26.322Z,39.18
2023-04-18T12:44:33.517Z,39.13
2023-04-18T12:49:40.783Z,39.10
2023-04-18T12:54:47.871Z,39.09
2023-04-18T12:59:55.059Z,39.01
2023-04-18T13:05:02.424Z,38.90
2023-04-18T13:10:09.466Z,39.03
2023-04-18T13:15:16.705Z,38.94
2023-04-18T13:20:24.055Z,38.88
2023-04-18T13:25:31.227Z,38.73
2023-04-18T13:30:38.427Z,38.74
2023-04-18T13:35:45.743Z,38.53
2023-04-18T13:41:04.397Z,38.61
2023-04-18T13:46:00.181Z,38.51
2023-04-18T13:51:07.390Z,38.77
2023-04-18T13:56:14.555Z,38.50
2023-04-18T14:01:21.703Z,38.69
2023-04-18T14:06:28.895Z,38.72
2023-04-18T14:11:36.047Z,38.79
2023-04-18T14:16:43.365Z,38.70
2023-04-18T14:21:50.729Z,38.68
2023-04-18T14:26:57.790Z,38.67
2023-04-18T14:32:04.975Z,38.68
2023-04-18T14:37:12.243Z,38.63
2023-04-18T14:42:19.371Z,38.69
2023-04-18T14:47:26.684Z,38.69
2023-04-18T14:52:33.864Z,38.75
2023-04-18T14:57:41.105Z,38.83
2023-04-18T15:02:48.606Z,38.73
2023-04-18T15:07:55.516Z,38.70
2023-04-18T15:13:02.695Z,38.61
2023-04-18T15:18:10.062Z,38.73
2023-04-18T15:23:17.153Z,38.48
2023-04-18T15:28:24.326Z,38.64
2023-04-18T15:33:31.517Z,38.56
2023-04-18T15:38:38.794Z,38.66
2023-04-18T15:43:45.984Z,38.48
2023-04-18T15:48:53.178Z,38.54
2023-04-18T15:54:00.409Z,38.56
2023-04-18T15:59:07.559Z,38.38
2023-04-18T16:04:15.456Z,38.35
2023-04-18T16:09:22.349Z,38.45
2023-04-18T16:14:29.494Z,38.38
2023-04-18T16:19:36.697Z,38.45
2023-04-18T16:24:43.893Z,38.52
2023-04-18T16:29:51.068Z,38.45
2023-04-18T16:34:58.332Z,38.44
2023-04-18T16:40:05.627Z,38.48
2023-04-18T16:45:12.844Z,38.44
2023-04-18T16:50:20.081Z,38.36
2023-04-18T16:55:27.478Z,38.45
2023-04-18T17:00:36.948Z,38.45
2023-04-18T17:05:41.970Z,38.54
2023-04-18T17:10:49.161Z,38.49
2023-04-18T17:15:56.386Z,38.49
2023-04-18T17:21:03.577Z,38.35
2023-04-18T17:26:10.831Z,38.41
2023-04-18T17:31:18.309Z,38.36
2023-04-18T17:36:25.887Z,38.45
2023-04-18T17:41:33.649Z,38.40
2023-04-18T17:46:41.110Z,38.31
2023-04-18T17:51:48.621Z,38.30
2023-04-18T17:56:56.366Z,38.32
2023-04-18T18:02:04.088Z,38.37
2023-04-18T18:07:12.809Z,38.99
2023-04-18T18:12:20.180Z,38.87
2023-04-18T18:17:27.744Z,39.04
2023-04-18T18:22:35.338Z,38.75
2023-04-18T18:27:42.832Z,38.53
2023-04-18T18:32:50.063Z,38.32
2023-04-18T18:37:57.565Z,38.25
2023-04-18T18:43:06.286Z,38.12
2023-04-18T18:48:13.883Z,37.96
2023-04-18T18:53:21.438Z,37.83
2023-04-18T18:58:29.192Z,37.74
2023-04-18T19:03:36.966Z,37.90
2023-04-18T19:08:45.404Z,37.67
2023-04-18T19:13:53.047Z,37.51
2023-04-18T19:19:00.634Z,37.54
2023-04-18T19:24:08.356Z,37.35
2023-04-18T19:29:16.177Z,37.19
2023-04-18T19:34:24.091Z,37.22
2023-04-18T19:39:31.817Z,37.10
2023-04-18T19:44:39.448Z,37.06
2023-04-18T19:49:47.159Z,36.98
2023-04-18T19:54:54.691Z,36.99
2023-04-18T20:00:02.218Z,36.93
2023-04-18T20:05:10.144Z,36.84
2023-04-18T20:10:17.390Z,36.87
2023-04-18T20:15:25.055Z,36.77
2023-04-18T20:20:33.255Z,36.77
2023-04-18T20:25:41.762Z,36.74
2023-04-18T20:30:49.535Z,36.61
2023-04-18T20:35:56.846Z,36.56
2023-04-18T20:41:04.318Z,36.53
2023-04-18T20:46:12.899Z,36.77
2023-04-18T20:51:20.078Z,36.51
2023-04-18T20:56:27.501Z,36.43
2023-04-18T21:01:36.850Z,36.37
2023-04-18T21:06:42.028Z,36.42
2023-04-18T21:11:49.308Z,36.41
2023-04-18T21:16:56.657Z,36.42
2023-04-18T21:22:03.920Z,36.29
2023-04-18T21:27:11.183Z,36.22
2023-04-18T21:32:18.428Z,36.45
2023-04-18T21:37:25.573Z,36.22
2023-04-18T21:42:32.832Z,36.06
2023-04-18T21:47:40.174Z,36.15
2023-04-18T21:52:47.300Z,35.99
2023-04-18T21:57:54.525Z,36.08
2023-04-18T22:03:02.297Z,36.05
2023-04-18T22:08:09.672Z,35.87
2023-04-18T22:13:17.360Z,35.90
2023-04-18T22:18:25.016Z,35.87
2023-04-18T22:23:35.585Z,35.79
2023-04-18T22:28:43.216Z,35.74
2023-04-18T22:33:56.370Z,35.70
2023-04-18T22:39:28.546Z,35.68
2023-04-18T22:44:27.246Z,35.61
2023-04-18T22:50:12.893Z,35.56
2023-04-18T22:55:27.112Z,35.53
2023-04-18T23:00:36.520Z,35.49
2023-04-18T23:05:44.725Z,35.42
2023-04-18T23:11:01.563Z,35.33
2023-04-18T23:16:09.367Z,35.29
2023-04-18T23:21:39.807Z,35.26
2023-04-18T23:26:47.807Z,35.22
2023-04-18T23:31:55.836Z,35.18
2023-04-18T23:37:28.444Z,35.14
2023-04-18T23:42:42.392Z,35.08
2023-04-18T23:49:15.688Z,35.04
2023-04-18T23:53:24.142Z,35.00
2023-04-18T23:58:40.780Z,34.96
